sensor_id;sensor_type;location;lat;lon;timestamp;temperature;humidity
26641;DHT22;14269;47.358;0.724;2023-11-25T00:02:28;9.0;57.0
26641;DHT22;14269;47.358;0.724;2023-11-25T00:05:00;9.0;57.0
26641;DHT22;14269;47.358;0.724;2023-11-25T00:07:32;9.0;57.0
26641;DHT22;14269;47.358;0.724;2023-11-25T00:10:12;9.0;56.0
26641;DHT22;14269;47.358;0.724;2023-11-25T00:12:44;9.0;56.0
26641;DHT22;14269;47.358;0.724;2023-11-25T00:15:26;9.0;56.0
26641;DHT22;14269;47.358;0.724;2023-11-25T00:17:57;9.0;56.0
26641;DHT22;14269;47.358;0.724;2023-11-25T00:20:30;9.0;55.0
26641;DHT22;14269;47.358;0.724;2023-11-25T00:23:01;9.0;55.0
26641;DHT22;14269;47.358;0.724;2023-11-25T00:25:32;9.0;55.0
26641;DHT22;14269;47.358;0.724;2023-11-25T00:28:06;9.0;55.0
26641;DHT22;14269;47.358;0.724;2023-11-25T00:30:46;9.0;55.0
26641;DHT22;14269;47.358;0.724;2023-11-25T00:33:18;9.0;55.0
26641;DHT22;14269;47.358;0.724;2023-11-25T00:35:50;9.0;55.0
26641;DHT22;14269;47.358;0.724;2023-11-25T00:38:31;9.0;55.0
26641;DHT22;14269;47.358;0.724;2023-11-25T00:41:05;9.0;55.0
26641;DHT22;14269;47.358;0.724;2023-11-25T00:43:44;9.0;55.0
26641;DHT22;14269;47.358;0.724;2023-11-25T00:46:16;9.0;55.0
26641;DHT22;14269;47.358;0.724;2023-11-25T00:48:48;9.0;54.0
26641;DHT22;14269;47.358;0.724;2023-11-25T00:51:19;9.0;54.0
26641;DHT22;14269;47.358;0.724;2023-11-25T00:53:51;9.0;54.0
26641;DHT22;14269;47.358;0.724;2023-11-25T00:56:22;9.0;54.0
26641;DHT22;14269;47.358;0.724;2023-11-25T00:58:54;9.0;54.0
26641;DHT22;14269;47.358;0.724;2023-11-25T01:01:26;9.0;54.0
26641;DHT22;14269;47.358;0.724;2023-11-25T01:03:57;9.0;54.0
26641;DHT22;14269;47.358;0.724;2023-11-25T01:06:30;8.0;54.0
26641;DHT22;14269;47.358;0.724;2023-11-25T01:09:01;8.0;55.0
26641;DHT22;14269;47.358;0.724;2023-11-25T01:11:32;8.0;54.0
26641;DHT22;14269;47.358;0.724;2023-11-25T01:14:14;8.0;54.0
26641;DHT22;14269;47.358;0.724;2023-11-25T01:16:46;8.0;54.0
26641;DHT22;14269;47.358;0.724;2023-11-25T01:19:17;8.0;54.0
26641;DHT22;14269;47.358;0.724;2023-11-25T01:21:49;8.0;54.0
26641;DHT22;14269;47.358;0.724;2023-11-25T01:24:21;8.0;53.0
26641;DHT22;14269;47.358;0.724;2023-11-25T01:26:52;8.0;54.0
26641;DHT22;14269;47.358;0.724;2023-11-25T01:29:24;8.0;54.0
26641;DHT22;14269;47.358;0.724;2023-11-25T01:31:56;8.0;53.0
26641;DHT22;14269;47.358;0.724;2023-11-25T01:34:27;8.0;54.0
26641;DHT22;14269;47.358;0.724;2023-11-25T01:36:59;8.0;54.0
26641;DHT22;14269;47.358;0.724;2023-11-25T01:39:31;8.0;54.0
26641;DHT22;14269;47.358;0.724;2023-11-25T01:42:03;8.0;54.0
26641;DHT22;14269;47.358;0.724;2023-11-25T01:44:34;8.0;54.0
26641;DHT22;14269;47.358;0.724;2023-11-25T01:47:06;8.0;53.0
26641;DHT22;14269;47.358;0.724;2023-11-25T01:49:48;8.0;53.0
26641;DHT22;14269;47.358;0.724;2023-11-25T01:52:30;8.0;54.0
26641;DHT22;14269;47.358;0.724;2023-11-25T01:55:01;8.0;54.0
26641;DHT22;14269;47.358;0.724;2023-11-25T01:57:43;8.0;53.0
26641;DHT22;14269;47.358;0.724;2023-11-25T02:00:14;8.0;53.0
26641;DHT22;14269;47.358;0.724;2023-11-25T02:02:49;8.0;53.0
26641;DHT22;14269;47.358;0.724;2023-11-25T02:05:27;8.0;53.0
26641;DHT22;14269;47.358;0.724;2023-11-25T02:07:59;8.0;53.0
26641;DHT22;14269;47.358;0.724;2023-11-25T02:10:31;8.0;53.0
26641;DHT22;14269;47.358;0.724;2023-11-25T02:13:03;8.0;54.0
26641;DHT22;14269;47.358;0.724;2023-11-25T02:15:44;8.0;54.0
26641;DHT22;14269;47.358;0.724;2023-11-25T02:18:16;8.0;54.0
26641;DHT22;14269;47.358;0.724;2023-11-25T02:20:49;8.0;54.0
26641;DHT22;14269;47.358;0.724;2023-11-25T02:23:29;8.0;53.0
26641;DHT22;14269;47.358;0.724;2023-11-25T02:26:02;8.0;53.0
26641;DHT22;14269;47.358;0.724;2023-11-25T02:28:44;8.0;53.0
26641;DHT22;14269;47.358;0.724;2023-11-25T02:31:14;8.0;53.0
26641;DHT22;14269;47.358;0.724;2023-11-25T02:33:46;8.0;53.0
26641;DHT22;14269;47.358;0.724;2023-11-25T02:36:17;8.0;53.0
26641;DHT22;14269;47.358;0.724;2023-11-25T02:38:49;8.0;53.0
26641;DHT22;14269;47.358;0.724;2023-11-25T02:41:21;8.0;53.0
26641;DHT22;14269;47.358;0.724;2023-11-25T02:43:52;8.0;53.0
26641;DHT22;14269;47.358;0.724;2023-11-25T02:46:24;8.0;54.0
26641;DHT22;14269;47.358;0.724;2023-11-25T02:48:56;8.0;54.0
26641;DHT22;14269;47.358;0.724;2023-11-25T02:51:28;8.0;54.0
26641;DHT22;14269;47.358;0.724;2023-11-25T02:54:00;8.0;54.0
26641;DHT22;14269;47.358;0.724;2023-11-25T02:56:41;8.0;54.0
26641;DHT22;14269;47.358;0.724;2023-11-25T02:59:13;8.0;54.0
26641;DHT22;14269;47.358;0.724;2023-11-25T03:01:55;8.0;54.0
26641;DHT22;14269;47.358;0.724;2023-11-25T03:04:37;8.0;54.0
26641;DHT22;14269;47.358;0.724;2023-11-25T03:07:18;8.0;54.0
26641;DHT22;14269;47.358;0.724;2023-11-25T03:09:59;8.0;54.0
26641;DHT22;14269;47.358;0.724;2023-11-25T03:12:31;8.0;55.0
26641;DHT22;14269;47.358;0.724;2023-11-25T03:15:03;8.0;54.0
26641;DHT22;14269;47.358;0.724;2023-11-25T03:17:34;7.0;54.0
26641;DHT22;14269;47.358;0.724;2023-11-25T03:20:07;7.0;55.0
26641;DHT22;14269;47.358;0.724;2023-11-25T03:22:48;7.0;55.0
26641;DHT22;14269;47.358;0.724;2023-11-25T03:25:23;7.0;55.0
26641;DHT22;14269;47.358;0.724;2023-11-25T03:28:04;7.0;54.0
26641;DHT22;14269;47.358;0.724;2023-11-25T03:30:43;7.0;55.0
26641;DHT22;14269;47.358;0.724;2023-11-25T03:33:15;7.0;55.0
26641;DHT22;14269;47.358;0.724;2023-11-25T03:35:47;7.0;55.0
26641;DHT22;14269;47.358;0.724;2023-11-25T03:38:18;7.0;55.0
26641;DHT22;14269;47.358;0.724;2023-11-25T03:40:51;7.0;55.0
26641;DHT22;14269;47.358;0.724;2023-11-25T03:43:31;7.0;55.0
26641;DHT22;14269;47.358;0.724;2023-11-25T03:46:04;7.0;55.0
26641;DHT22;14269;47.358;0.724;2023-11-25T03:48:45;7.0;54.0
26641;DHT22;14269;47.358;0.724;2023-11-25T03:51:16;7.0;55.0
26641;DHT22;14269;47.358;0.724;2023-11-25T03:53:48;7.0;55.0
26641;DHT22;14269;47.358;0.724;2023-11-25T03:56:21;7.0;55.0
26641;DHT22;14269;47.358;0.724;2023-11-25T03:59:01;7.0;56.0
26641;DHT22;14269;47.358;0.724;2023-11-25T04:01:33;7.0;56.0
26641;DHT22;14269;47.358;0.724;2023-11-25T04:04:06;7.0;56.0
26641;DHT22;14269;47.358;0.724;2023-11-25T04:06:46;7.0;56.0
26641;DHT22;14269;47.358;0.724;2023-11-25T04:09:18;7.0;56.0
26641;DHT22;14269;47.358;0.724;2023-11-25T04:11:50;7.0;56.0
26641;DHT22;14269;47.358;0.724;2023-11-25T04:14:21;7.0;55.0
26641;DHT22;14269;47.358;0.724;2023-11-25T04:17:03;7.0;55.0
26641;DHT22;14269;47.358;0.724;2023-11-25T04:19:35;7.0;55.0
26641;DHT22;14269;47.358;0.724;2023-11-25T04:22:06;7.0;55.0
26641;DHT22;14269;47.358;0.724;2023-11-25T04:24:38;7.0;56.0
26641;DHT22;14269;47.358;0.724;2023-11-25T04:27:10;7.0;56.0
26641;DHT22;14269;47.358;0.724;2023-11-25T04:29:42;7.0;56.0
26641;DHT22;14269;47.358;0.724;2023-11-25T04:32:13;7.0;56.0
26641;DHT22;14269;47.358;0.724;2023-11-25T04:34:45;7.0;56.0
26641;DHT22;14269;47.358;0.724;2023-11-25T04:37:16;7.0;56.0
26641;DHT22;14269;47.358;0.724;2023-11-25T04:39:48;7.0;56.0
26641;DHT22;14269;47.358;0.724;2023-11-25T04:42:20;7.0;56.0
26641;DHT22;14269;47.358;0.724;2023-11-25T04:44:51;7.0;56.0
26641;DHT22;14269;47.358;0.724;2023-11-25T04:47:23;7.0;56.0
26641;DHT22;14269;47.358;0.724;2023-11-25T04:49:55;7.0;56.0
26641;DHT22;14269;47.358;0.724;2023-11-25T04:52:26;7.0;56.0
26641;DHT22;14269;47.358;0.724;2023-11-25T04:54:58;7.0;55.0
26641;DHT22;14269;47.358;0.724;2023-11-25T04:57:29;7.0;56.0
26641;DHT22;14269;47.358;0.724;2023-11-25T05:00:04;7.0;55.0
26641;DHT22;14269;47.358;0.724;2023-11-25T05:02:43;7.0;55.0
26641;DHT22;14269;47.358;0.724;2023-11-25T05:05:15;7.0;55.0
26641;DHT22;14269;47.358;0.724;2023-11-25T05:07:46;7.0;56.0
26641;DHT22;14269;47.358;0.724;2023-11-25T05:10:20;7.0;55.0
26641;DHT22;14269;47.358;0.724;2023-11-25T05:13:00;7.0;56.0
26641;DHT22;14269;47.358;0.724;2023-11-25T05:15:31;7.0;55.0
26641;DHT22;14269;47.358;0.724;2023-11-25T05:18:03;7.0;55.0
26641;DHT22;14269;47.358;0.724;2023-11-25T05:20:35;7.0;55.0
26641;DHT22;14269;47.358;0.724;2023-11-25T05:23:06;7.0;55.0
26641;DHT22;14269;47.358;0.724;2023-11-25T05:25:38;7.0;55.0
26641;DHT22;14269;47.358;0.724;2023-11-25T05:28:09;7.0;55.0
26641;DHT22;14269;47.358;0.724;2023-11-25T05:30:41;7.0;56.0
26641;DHT22;14269;47.358;0.724;2023-11-25T05:33:13;7.0;56.0
26641;DHT22;14269;47.358;0.724;2023-11-25T05:35:44;7.0;56.0
26641;DHT22;14269;47.358;0.724;2023-11-25T05:38:19;7.0;56.0
26641;DHT22;14269;47.358;0.724;2023-11-25T05:40:58;7.0;56.0
26641;DHT22;14269;47.358;0.724;2023-11-25T05:43:29;7.0;56.0
26641;DHT22;14269;47.358;0.724;2023-11-25T05:46:01;7.0;56.0
26641;DHT22;14269;47.358;0.724;2023-11-25T05:48:33;7.0;56.0
26641;DHT22;14269;47.358;0.724;2023-11-25T05:51:05;7.0;55.0
26641;DHT22;14269;47.358;0.724;2023-11-25T05:53:36;7.0;56.0
26641;DHT22;14269;47.358;0.724;2023-11-25T05:56:08;7.0;56.0
26641;DHT22;14269;47.358;0.724;2023-11-25T05:58:39;7.0;56.0
26641;DHT22;14269;47.358;0.724;2023-11-25T06:01:12;6.0;56.0
26641;DHT22;14269;47.358;0.724;2023-11-25T06:03:53;7.0;56.0
26641;DHT22;14269;47.358;0.724;2023-11-25T06:06:24;6.0;56.0
26641;DHT22;14269;47.358;0.724;2023-11-25T06:08:56;6.0;57.0
26641;DHT22;14269;47.358;0.724;2023-11-25T06:11:29;7.0;56.0
26641;DHT22;14269;47.358;0.724;2023-11-25T06:14:12;7.0;56.0
26641;DHT22;14269;47.358;0.724;2023-11-25T06:16:53;7.0;56.0
26641;DHT22;14269;47.358;0.724;2023-11-25T06:19:33;7.0;56.0
26641;DHT22;14269;47.358;0.724;2023-11-25T06:22:07;7.0;55.0
26641;DHT22;14269;47.358;0.724;2023-11-25T06:24:46;7.0;56.0
26641;DHT22;14269;47.358;0.724;2023-11-25T06:27:19;7.0;56.0
26641;DHT22;14269;47.358;0.724;2023-11-25T06:30:00;7.0;56.0
26641;DHT22;14269;47.358;0.724;2023-11-25T06:32:33;7.0;56.0
26641;DHT22;14269;47.358;0.724;2023-11-25T06:35:13;7.0;56.0
26641;DHT22;14269;47.358;0.724;2023-11-25T06:37:45;7.0;55.0
26641;DHT22;14269;47.358;0.724;2023-11-25T06:40:17;6.0;56.0
26641;DHT22;14269;47.358;0.724;2023-11-25T06:42:48;6.0;56.0
26641;DHT22;14269;47.358;0.724;2023-11-25T06:45:21;6.0;56.0
26641;DHT22;14269;47.358;0.724;2023-11-25T06:48:02;7.0;56.0
26641;DHT22;14269;47.358;0.724;2023-11-25T06:50:33;6.0;56.0
26641;DHT22;14269;47.358;0.724;2023-11-25T06:53:05;6.0;56.0
26641;DHT22;14269;47.358;0.724;2023-11-25T06:55:41;6.0;58.0
26641;DHT22;14269;47.358;0.724;2023-11-25T06:58:18;6.0;57.0
26641;DHT22;14269;47.358;0.724;2023-11-25T07:00:50;6.0;57.0
26641;DHT22;14269;47.358;0.724;2023-11-25T07:03:23;6.0;57.0
26641;DHT22;14269;47.358;0.724;2023-11-25T07:06:05;6.0;56.0
26641;DHT22;14269;47.358;0.724;2023-11-25T07:08:45;6.0;56.0
26641;DHT22;14269;47.358;0.724;2023-11-25T07:11:18;6.0;56.0
26641;DHT22;14269;47.358;0.724;2023-11-25T07:13:58;6.0;56.0
26641;DHT22;14269;47.358;0.724;2023-11-25T07:16:30;6.0;56.0
26641;DHT22;14269;47.358;0.724;2023-11-25T07:19:12;6.0;56.0
26641;DHT22;14269;47.358;0.724;2023-11-25T07:21:43;6.0;56.0
26641;DHT22;14269;47.358;0.724;2023-11-25T07:24:15;6.0;56.0
26641;DHT22;14269;47.358;0.724;2023-11-25T07:26:51;6.0;56.0
26641;DHT22;14269;47.358;0.724;2023-11-25T07:29:31;6.0;56.0
26641;DHT22;14269;47.358;0.724;2023-11-25T07:32:12;6.0;56.0
26641;DHT22;14269;47.358;0.724;2023-11-25T07:34:52;7.0;56.0
26641;DHT22;14269;47.358;0.724;2023-11-25T07:37:24;7.0;56.0
26641;DHT22;14269;47.358;0.724;2023-11-25T07:39:55;7.0;56.0
26641;DHT22;14269;47.358;0.724;2023-11-25T07:42:27;7.0;56.0
26641;DHT22;14269;47.358;0.724;2023-11-25T07:44:59;7.0;56.0
26641;DHT22;14269;47.358;0.724;2023-11-25T07:47:30;7.0;56.0
26641;DHT22;14269;47.358;0.724;2023-11-25T07:50:02;7.0;57.0
26641;DHT22;14269;47.358;0.724;2023-11-25T07:52:33;7.0;56.0
26641;DHT22;14269;47.358;0.724;2023-11-25T07:55:06;7.0;56.0
26641;DHT22;14269;47.358;0.724;2023-11-25T07:57:47;7.0;56.0
26641;DHT22;14269;47.358;0.724;2023-11-25T08:00:19;7.0;56.0
26641;DHT22;14269;47.358;0.724;2023-11-25T08:03:02;7.0;56.0
26641;DHT22;14269;47.358;0.724;2023-11-25T08:05:42;7.0;57.0
26641;DHT22;14269;47.358;0.724;2023-11-25T08:08:24;7.0;58.0
26641;DHT22;14269;47.358;0.724;2023-11-25T08:10:57;7.0;58.0
26641;DHT22;14269;47.358;0.724;2023-11-25T08:13:39;7.0;58.0
26641;DHT22;14269;47.358;0.724;2023-11-25T08:16:19;7.0;58.0
26641;DHT22;14269;47.358;0.724;2023-11-25T08:18:51;7.0;58.0
26641;DHT22;14269;47.358;0.724;2023-11-25T08:21:23;7.0;58.0
26641;DHT22;14269;47.358;0.724;2023-11-25T08:23:54;7.0;57.0
26641;DHT22;14269;47.358;0.724;2023-11-25T08:26:26;7.0;57.0
26641;DHT22;14269;47.358;0.724;2023-11-25T08:28:59;7.0;57.0
26641;DHT22;14269;47.358;0.724;2023-11-25T08:31:39;7.0;57.0
26641;DHT22;14269;47.358;0.724;2023-11-25T08:34:12;7.0;57.0
26641;DHT22;14269;47.358;0.724;2023-11-25T08:36:52;7.0;57.0
26641;DHT22;14269;47.358;0.724;2023-11-25T08:39:25;7.0;57.0
26641;DHT22;14269;47.358;0.724;2023-11-25T08:42:09;8.0;57.0
26641;DHT22;14269;47.358;0.724;2023-11-25T08:44:50;8.0;56.0
26641;DHT22;14269;47.358;0.724;2023-11-25T08:47:30;7.0;57.0
26641;DHT22;14269;47.358;0.724;2023-11-25T08:50:15;8.0;56.0
26641;DHT22;14269;47.358;0.724;2023-11-25T08:52:53;8.0;56.0
26641;DHT22;14269;47.358;0.724;2023-11-25T08:55:24;8.0;56.0
26641;DHT22;14269;47.358;0.724;2023-11-25T08:57:56;8.0;56.0
26641;DHT22;14269;47.358;0.724;2023-11-25T09:00:29;8.0;56.0
26641;DHT22;14269;47.358;0.724;2023-11-25T09:03:10;8.0;56.0
26641;DHT22;14269;47.358;0.724;2023-11-25T09:05:41;8.0;56.0
26641;DHT22;14269;47.358;0.724;2023-11-25T09:08:13;8.0;55.0
26641;DHT22;14269;47.358;0.724;2023-11-25T09:10:45;8.0;55.0
26641;DHT22;14269;47.358;0.724;2023-11-25T09:13:17;8.0;55.0
26641;DHT22;14269;47.358;0.724;2023-11-25T09:15:50;8.0;54.0
26641;DHT22;14269;47.358;0.724;2023-11-25T09:18:30;8.0;54.0
26641;DHT22;14269;47.358;0.724;2023-11-25T09:21:13;8.0;54.0
26641;DHT22;14269;47.358;0.724;2023-11-25T09:23:55;8.0;54.0
26641;DHT22;14269;47.358;0.724;2023-11-25T09:26:35;8.0;54.0
26641;DHT22;14269;47.358;0.724;2023-11-25T09:29:06;9.0;54.0
26641;DHT22;14269;47.358;0.724;2023-11-25T09:31:38;9.0;54.0
26641;DHT22;14269;47.358;0.724;2023-11-25T09:34:10;8.0;55.0
26641;DHT22;14269;47.358;0.724;2023-11-25T09:36:51;9.0;55.0
26641;DHT22;14269;47.358;0.724;2023-11-25T09:39:24;9.0;55.0
26641;DHT22;14269;47.358;0.724;2023-11-25T09:42:05;9.0;54.0
26641;DHT22;14269;47.358;0.724;2023-11-25T09:44:37;9.0;54.0
26641;DHT22;14269;47.358;0.724;2023-11-25T09:47:19;9.0;55.0
26641;DHT22;14269;47.358;0.724;2023-11-25T09:49:50;9.0;55.0
26641;DHT22;14269;47.358;0.724;2023-11-25T09:52:24;9.0;55.0
26641;DHT22;14269;47.358;0.724;2023-11-25T09:55:04;9.0;54.0
26641;DHT22;14269;47.358;0.724;2023-11-25T09:57:50;9.0;53.0
26641;DHT22;14269;47.358;0.724;2023-11-25T10:00:27;9.0;53.0
26641;DHT22;14269;47.358;0.724;2023-11-25T10:03:10;9.0;53.0
26641;DHT22;14269;47.358;0.724;2023-11-25T10:05:50;10.0;53.0
26641;DHT22;14269;47.358;0.724;2023-11-25T10:08:22;10.0;51.0
26641;DHT22;14269;47.358;0.724;2023-11-25T10:11:02;12.0;48.0
26641;DHT22;14269;47.358;0.724;2023-11-25T10:13:46;13.0;43.0
26641;DHT22;14269;47.358;0.724;2023-11-25T10:16:26;14.0;41.0
26641;DHT22;14269;47.358;0.724;2023-11-25T10:19:00;15.0;40.0
26641;DHT22;14269;47.358;0.724;2023-11-25T10:21:35;16.0;38.0
26641;DHT22;14269;47.358;0.724;2023-11-25T10:24:13;16.0;38.0
26641;DHT22;14269;47.358;0.724;2023-11-25T10:26:55;17.0;36.0
26641;DHT22;14269;47.358;0.724;2023-11-25T10:29:40;17.0;36.0
26641;DHT22;14269;47.358;0.724;2023-11-25T10:32:21;18.0;34.0
26641;DHT22;14269;47.358;0.724;2023-11-25T10:34:59;19.0;33.0
26641;DHT22;14269;47.358;0.724;2023-11-25T10:37:31;18.0;32.0
26641;DHT22;14269;47.358;0.724;2023-11-25T10:40:05;18.0;33.0
26641;DHT22;14269;47.358;0.724;2023-11-25T10:42:45;17.0;35.0
26641;DHT22;14269;47.358;0.724;2023-11-25T10:45:17;18.0;35.0
26641;DHT22;14269;47.358;0.724;2023-11-25T10:47:58;17.0;35.0
26641;DHT22;14269;47.358;0.724;2023-11-25T10:50:30;19.0;33.0
26641;DHT22;14269;47.358;0.724;2023-11-25T10:53:04;19.0;32.0
26641;DHT22;14269;47.358;0.724;2023-11-25T10:55:43;19.0;32.0
26641;DHT22;14269;47.358;0.724;2023-11-25T10:58:28;18.0;33.0
26641;DHT22;14269;47.358;0.724;2023-11-25T11:01:07;17.0;35.0
26641;DHT22;14269;47.358;0.724;2023-11-25T11:03:51;17.0;36.0
26641;DHT22;14269;47.358;0.724;2023-11-25T11:06:48;18.0;34.0
26641;DHT22;14269;47.358;0.724;2023-11-25T11:09:26;18.0;35.0
26641;DHT22;14269;47.358;0.724;2023-11-25T11:12:07;18.0;35.0
26641;DHT22;14269;47.358;0.724;2023-11-25T11:14:51;16.0;38.0
26641;DHT22;14269;47.358;0.724;2023-11-25T11:17:33;16.0;39.0
26641;DHT22;14269;47.358;0.724;2023-11-25T11:20:12;16.0;39.0
26641;DHT22;14269;47.358;0.724;2023-11-25T11:22:51;17.0;36.0
26641;DHT22;14269;47.358;0.724;2023-11-25T11:25:26;18.0;35.0
26641;DHT22;14269;47.358;0.724;2023-11-25T11:28:11;19.0;33.0
26641;DHT22;14269;47.358;0.724;2023-11-25T11:30:57;19.0;31.0
26641;DHT22;14269;47.358;0.724;2023-11-25T11:33:38;20.0;30.0
26641;DHT22;14269;47.358;0.724;2023-11-25T11:36:19;21.0;28.0
26641;DHT22;14269;47.358;0.724;2023-11-25T11:38:52;22.0;27.0
26641;DHT22;14269;47.358;0.724;2023-11-25T11:41:36;22.0;27.0
26641;DHT22;14269;47.358;0.724;2023-11-25T11:44:16;21.0;27.0
26641;DHT22;14269;47.358;0.724;2023-11-25T11:46:56;20.0;30.0
26641;DHT22;14269;47.358;0.724;2023-11-25T11:49:32;19.0;31.0
26641;DHT22;14269;47.358;0.724;2023-11-25T11:52:11;21.0;29.0
26641;DHT22;14269;47.358;0.724;2023-11-25T11:54:51;22.0;27.0
26641;DHT22;14269;47.358;0.724;2023-11-25T11:57:23;22.0;26.0
26641;DHT22;14269;47.358;0.724;2023-11-25T11:59:58;23.0;25.0
26641;DHT22;14269;47.358;0.724;2023-11-25T12:02:40;22.0;27.0
26641;DHT22;14269;47.358;0.724;2023-11-25T12:05:19;21.0;28.0
26641;DHT22;14269;47.358;0.724;2023-11-25T12:07:50;20.0;30.0
26641;DHT22;14269;47.358;0.724;2023-11-25T12:10:23;20.0;29.0
26641;DHT22;14269;47.358;0.724;2023-11-25T12:13:03;19.0;31.0
26641;DHT22;14269;47.358;0.724;2023-11-25T12:15:35;19.0;32.0
26641;DHT22;14269;47.358;0.724;2023-11-25T12:18:09;18.0;34.0
26641;DHT22;14269;47.358;0.724;2023-11-25T12:20:48;18.0;34.0
26641;DHT22;14269;47.358;0.724;2023-11-25T12:23:20;17.0;34.0
26641;DHT22;14269;47.358;0.724;2023-11-25T12:25:52;19.0;33.0
26641;DHT22;14269;47.358;0.724;2023-11-25T12:28:24;19.0;31.0
26641;DHT22;14269;47.358;0.724;2023-11-25T12:30:55;19.0;32.0
26641;DHT22;14269;47.358;0.724;2023-11-25T12:33:26;19.0;32.0
26641;DHT22;14269;47.358;0.724;2023-11-25T12:35:58;19.0;32.0
26641;DHT22;14269;47.358;0.724;2023-11-25T12:38:32;17.0;35.0
26641;DHT22;14269;47.358;0.724;2023-11-25T12:41:15;16.0;36.0
26641;DHT22;14269;47.358;0.724;2023-11-25T12:44:09;17.0;35.0
26641;DHT22;14269;47.358;0.724;2023-11-25T12:47:00;18.0;33.0
26641;DHT22;14269;47.358;0.724;2023-11-25T12:49:37;18.0;34.0
26641;DHT22;14269;47.358;0.724;2023-11-25T12:52:18;18.0;34.0
26641;DHT22;14269;47.358;0.724;2023-11-25T12:54:52;19.0;33.0
26641;DHT22;14269;47.358;0.724;2023-11-25T12:57:33;20.0;30.0
26641;DHT22;14269;47.358;0.724;2023-11-25T13:00:08;20.0;30.0
26641;DHT22;14269;47.358;0.724;2023-11-25T13:02:46;19.0;32.0
26641;DHT22;14269;47.358;0.724;2023-11-25T13:05:22;19.0;32.0
26641;DHT22;14269;47.358;0.724;2023-11-25T13:07:59;20.0;31.0
26641;DHT22;14269;47.358;0.724;2023-11-25T13:10:51;21.0;28.0
26641;DHT22;14269;47.358;0.724;2023-11-25T13:13:23;22.0;28.0
26641;DHT22;14269;47.358;0.724;2023-11-25T13:15:54;23.0;26.0
26641;DHT22;14269;47.358;0.724;2023-11-25T13:18:26;23.0;26.0
26641;DHT22;14269;47.358;0.724;2023-11-25T13:21:01;22.0;27.0
26641;DHT22;14269;47.358;0.724;2023-11-25T13:23:39;20.0;30.0
26641;DHT22;14269;47.358;0.724;2023-11-25T13:26:12;21.0;28.0
26641;DHT22;14269;47.358;0.724;2023-11-25T13:28:53;21.0;28.0
26641;DHT22;14269;47.358;0.724;2023-11-25T13:31:24;19.0;30.0
26641;DHT22;14269;47.358;0.724;2023-11-25T13:33:56;19.0;32.0
26641;DHT22;14269;47.358;0.724;2023-11-25T13:36:28;19.0;31.0
26641;DHT22;14269;47.358;0.724;2023-11-25T13:38:59;21.0;28.0
26641;DHT22;14269;47.358;0.724;2023-11-25T13:41:31;20.0;29.0
26641;DHT22;14269;47.358;0.724;2023-11-25T13:44:03;18.0;32.0
26641;DHT22;14269;47.358;0.724;2023-11-25T13:46:34;17.0;34.0
26641;DHT22;14269;47.358;0.724;2023-11-25T13:49:06;18.0;33.0
26641;DHT22;14269;47.358;0.724;2023-11-25T13:51:38;17.0;35.0
26641;DHT22;14269;47.358;0.724;2023-11-25T13:54:09;17.0;35.0
26641;DHT22;14269;47.358;0.724;2023-11-25T13:56:41;17.0;34.0
26641;DHT22;14269;47.358;0.724;2023-11-25T13:59:13;18.0;33.0
26641;DHT22;14269;47.358;0.724;2023-11-25T14:01:46;18.0;33.0
26641;DHT22;14269;47.358;0.724;2023-11-25T14:04:26;17.0;34.0
26641;DHT22;14269;47.358;0.724;2023-11-25T14:06:59;17.0;35.0
26641;DHT22;14269;47.358;0.724;2023-11-25T14:09:39;17.0;36.0
26641;DHT22;14269;47.358;0.724;2023-11-25T14:12:11;17.0;35.0
26641;DHT22;14269;47.358;0.724;2023-11-25T14:14:43;18.0;34.0
26641;DHT22;14269;47.358;0.724;2023-11-25T14:17:17;19.0;32.0
26641;DHT22;14269;47.358;0.724;2023-11-25T14:19:56;20.0;29.0
26641;DHT22;14269;47.358;0.724;2023-11-25T14:22:28;21.0;29.0
26641;DHT22;14269;47.358;0.724;2023-11-25T14:25:00;22.0;27.0
26641;DHT22;14269;47.358;0.724;2023-11-25T14:27:31;21.0;28.0
26641;DHT22;14269;47.358;0.724;2023-11-25T14:30:03;20.0;29.0
26641;DHT22;14269;47.358;0.724;2023-11-25T14:32:47;20.0;29.0
26641;DHT22;14269;47.358;0.724;2023-11-25T14:35:26;20.0;29.0
26641;DHT22;14269;47.358;0.724;2023-11-25T14:38:00;19.0;31.0
26641;DHT22;14269;47.358;0.724;2023-11-25T14:40:39;17.0;35.0
26641;DHT22;14269;47.358;0.724;2023-11-25T14:43:11;16.0;37.0
26641;DHT22;14269;47.358;0.724;2023-11-25T14:45:43;15.0;39.0
26641;DHT22;14269;47.358;0.724;2023-11-25T14:48:14;14.0;40.0
26641;DHT22;14269;47.358;0.724;2023-11-25T14:50:46;13.0;43.0
26641;DHT22;14269;47.358;0.724;2023-11-25T14:53:18;13.0;44.0
26641;DHT22;14269;47.358;0.724;2023-11-25T14:55:50;13.0;44.0
26641;DHT22;14269;47.358;0.724;2023-11-25T14:58:21;13.0;44.0
26641;DHT22;14269;47.358;0.724;2023-11-25T15:01:03;13.0;44.0
26641;DHT22;14269;47.358;0.724;2023-11-25T15:03:39;13.0;45.0
26641;DHT22;14269;47.358;0.724;2023-11-25T15:06:16;13.0;45.0
26641;DHT22;14269;47.358;0.724;2023-11-25T15:08:48;12.0;46.0
26641;DHT22;14269;47.358;0.724;2023-11-25T15:11:19;13.0;46.0
26641;DHT22;14269;47.358;0.724;2023-11-25T15:13:51;12.0;46.0
26641;DHT22;14269;47.358;0.724;2023-11-25T15:16:23;12.0;47.0
26641;DHT22;14269;47.358;0.724;2023-11-25T15:18:54;12.0;47.0
26641;DHT22;14269;47.358;0.724;2023-11-25T15:21:27;12.0;48.0
26641;DHT22;14269;47.358;0.724;2023-11-25T15:23:58;12.0;47.0
26641;DHT22;14269;47.358;0.724;2023-11-25T15:26:30;12.0;48.0
26641;DHT22;14269;47.358;0.724;2023-11-25T15:29:01;12.0;48.0
26641;DHT22;14269;47.358;0.724;2023-11-25T15:31:33;12.0;48.0
26641;DHT22;14269;47.358;0.724;2023-11-25T15:34:07;12.0;47.0
26641;DHT22;14269;47.358;0.724;2023-11-25T15:36:46;12.0;48.0
26641;DHT22;14269;47.358;0.724;2023-11-25T15:39:19;12.0;48.0
26641;DHT22;14269;47.358;0.724;2023-11-25T15:41:59;12.0;49.0
26641;DHT22;14269;47.358;0.724;2023-11-25T15:44:31;12.0;48.0
26641;DHT22;14269;47.358;0.724;2023-11-25T15:47:03;12.0;48.0
26641;DHT22;14269;47.358;0.724;2023-11-25T15:49:45;12.0;49.0
26641;DHT22;14269;47.358;0.724;2023-11-25T15:52:16;12.0;49.0
26641;DHT22;14269;47.358;0.724;2023-11-25T15:54:49;11.0;49.0
26641;DHT22;14269;47.358;0.724;2023-11-25T15:57:29;11.0;50.0
26641;DHT22;14269;47.358;0.724;2023-11-25T16:00:01;11.0;50.0
26641;DHT22;14269;47.358;0.724;2023-11-25T16:02:43;11.0;50.0
26641;DHT22;14269;47.358;0.724;2023-11-25T16:05:15;11.0;50.0
26641;DHT22;14269;47.358;0.724;2023-11-25T16:07:46;11.0;50.0
26641;DHT22;14269;47.358;0.724;2023-11-25T16:10:18;11.0;50.0
26641;DHT22;14269;47.358;0.724;2023-11-25T16:12:49;11.0;50.0
26641;DHT22;14269;47.358;0.724;2023-11-25T16:15:22;11.0;50.0
26641;DHT22;14269;47.358;0.724;2023-11-25T16:17:53;11.0;50.0
26641;DHT22;14269;47.358;0.724;2023-11-25T16:20:24;11.0;50.0
26641;DHT22;14269;47.358;0.724;2023-11-25T16:22:56;11.0;51.0
26641;DHT22;14269;47.358;0.724;2023-11-25T16:25:28;11.0;51.0
26641;DHT22;14269;47.358;0.724;2023-11-25T16:27:59;11.0;51.0
26641;DHT22;14269;47.358;0.724;2023-11-25T16:30:32;11.0;50.0
26641;DHT22;14269;47.358;0.724;2023-11-25T16:33:13;11.0;51.0
26641;DHT22;14269;47.358;0.724;2023-11-25T16:35:44;11.0;51.0
26641;DHT22;14269;47.358;0.724;2023-11-25T16:38:19;11.0;51.0
26641;DHT22;14269;47.358;0.724;2023-11-25T16:40:58;10.0;51.0
26641;DHT22;14269;47.358;0.724;2023-11-25T16:43:30;10.0;51.0
26641;DHT22;14269;47.358;0.724;2023-11-25T16:46:02;10.0;51.0
26641;DHT22;14269;47.358;0.724;2023-11-25T16:48:43;10.0;52.0
26641;DHT22;14269;47.358;0.724;2023-11-25T16:51:14;10.0;52.0
26641;DHT22;14269;47.358;0.724;2023-11-25T16:53:46;10.0;52.0
26641;DHT22;14269;47.358;0.724;2023-11-25T16:56:18;10.0;52.0
26641;DHT22;14269;47.358;0.724;2023-11-25T16:58:49;10.0;53.0
26641;DHT22;14269;47.358;0.724;2023-11-25T17:01:21;10.0;52.0
26641;DHT22;14269;47.358;0.724;2023-11-25T17:03:53;10.0;52.0